sensor_id;sensor_type;location;lat;lon;timestamp;P1;durP1;ratioP1;P2;durP2;ratioP2
31348;SDS011;17976;48.480;11.946;2023-09-30T06:00:17;23.40;;;7.97;;
31348;SDS011;17976;48.480;11.946;2023-09-30T06:03:00;19.95;;;7.20;;
31348;SDS011;17976;48.480;11.946;2023-09-30T06:05:26;20.45;;;7.30;;
31348;SDS011;17976;48.480;11.946;2023-09-30T06:07:55;20.30;;;7.53;;
31348;SDS011;17976;48.480;11.946;2023-09-30T06:10:21;19.80;;;7.50;;
31348;SDS011;17976;48.480;11.946;2023-09-30T06:12:47;20.75;;;7.38;;
31348;SDS011;17976;48.480;11.946;2023-09-30T06:15:14;25.10;;;8.60;;
31348;SDS011;17976;48.480;11.946;2023-09-30T06:17:40;21.60;;;7.32;;
31348;SDS011;17976;48.480;11.946;2023-09-30T06:20:07;25.52;;;8.95;;
31348;SDS011;17976;48.480;11.946;2023-09-30T06:22:35;20.30;;;7.72;;
31348;SDS011;17976;48.480;11.946;2023-09-30T06:25:01;25.70;;;8.27;;
31348;SDS011;17976;48.480;11.946;2023-09-30T06:27:29;21.83;;;8.13;;
31348;SDS011;17976;48.480;11.946;2023-09-30T06:29:55;20.73;;;7.35;;
31348;SDS011;17976;48.480;11.946;2023-09-30T06:32:21;25.10;;;7.85;;
31348;SDS011;17976;48.480;11.946;2023-09-30T06:34:47;23.42;;;7.85;;
31348;SDS011;17976;48.480;11.946;2023-09-30T06:37:13;20.88;;;7.03;;
31348;SDS011;17976;48.480;11.946;2023-09-30T06:39:39;21.00;;;7.10;;
31348;SDS011;17976;48.480;11.946;2023-09-30T06:42:04;18.70;;;7.40;;
31348;SDS011;17976;48.480;11.946;2023-09-30T06:44:32;18.35;;;6.97;;
31348;SDS011;17976;48.480;11.946;2023-09-30T06:46:58;22.35;;;7.13;;
31348;SDS011;17976;48.480;11.946;2023-09-30T06:49:24;19.15;;;6.72;;
31348;SDS011;17976;48.480;11.946;2023-09-30T06:51:50;22.30;;;7.35;;
31348;SDS011;17976;48.480;11.946;2023-09-30T06:54:16;26.63;;;7.90;;
31348;SDS011;17976;48.480;11.946;2023-09-30T06:56:42;21.88;;;7.05;;
31348;SDS011;17976;48.480;11.946;2023-09-30T06:59:08;22.52;;;7.18;;
31348;SDS011;17976;48.480;11.946;2023-09-30T07:01:34;20.00;;;7.00;;
31348;SDS011;17976;48.480;11.946;2023-09-30T07:04:00;19.98;;;6.70;;
31348;SDS011;17976;48.480;11.946;2023-09-30T07:06:26;18.65;;;7.28;;
31348;SDS011;17976;48.480;11.946;2023-09-30T07:08:52;20.20;;;6.25;;
31348;SDS011;17976;48.480;11.946;2023-09-30T07:11:28;19.80;;;6.85;;
31348;SDS011;17976;48.480;11.946;2023-09-30T07:13:54;19.38;;;6.45;;
31348;SDS011;17976;48.480;11.946;2023-09-30T07:16:20;17.63;;;6.97;;
31348;SDS011;17976;48.480;11.946;2023-09-30T07:18:46;16.48;;;5.40;;
31348;SDS011;17976;48.480;11.946;2023-09-30T07:21:13;11.57;;;4.75;;
31348;SDS011;17976;48.480;11.946;2023-09-30T07:23:39;10.02;;;4.30;;
31348;SDS011;17976;48.480;11.946;2023-09-30T07:26:06;10.75;;;4.00;;
31348;SDS011;17976;48.480;11.946;2023-09-30T07:28:32;11.00;;;4.00;;
31348;SDS011;17976;48.480;11.946;2023-09-30T07:30:58;10.27;;;3.75;;
31348;SDS011;17976;48.480;11.946;2023-09-30T07:33:24;10.63;;;3.75;;
31348;SDS011;17976;48.480;11.946;2023-09-30T07:35:50;8.85;;;3.20;;
31348;SDS011;17976;48.480;11.946;2023-09-30T07:38:16;9.07;;;3.38;;
31348;SDS011;17976;48.480;11.946;2023-09-30T07:40:42;9.20;;;3.53;;
31348;SDS011;17976;48.480;11.946;2023-09-30T07:43:09;8.00;;;2.83;;
31348;SDS011;17976;48.480;11.946;2023-09-30T07:45:37;5.75;;;2.58;;
31348;SDS011;17976;48.480;11.946;2023-09-30T07:48:04;5.20;;;2.33;;
31348;SDS011;17976;48.480;11.946;2023-09-30T07:50:30;7.55;;;2.45;;
31348;SDS011;17976;48.480;11.946;2023-09-30T07:52:56;6.55;;;2.30;;
31348;SDS011;17976;48.480;11.946;2023-09-30T07:55:23;6.65;;;2.63;;
31348;SDS011;17976;48.480;11.946;2023-09-30T07:57:49;7.97;;;2.67;;
31348;SDS011;17976;48.480;11.946;2023-09-30T08:00:15;8.30;;;2.58;;
31348;SDS011;17976;48.480;11.946;2023-09-30T08:02:42;6.35;;;2.85;;
31348;SDS011;17976;48.480;11.946;2023-09-30T08:05:08;9.02;;;2.67;;
31348;SDS011;17976;48.480;11.946;2023-09-30T08:07:34;9.27;;;3.30;;
31348;SDS011;17976;48.480;11.946;2023-09-30T08:10:00;9.20;;;3.78;;
31348;SDS011;17976;48.480;11.946;2023-09-30T08:12:29;8.65;;;2.83;;
31348;SDS011;17976;48.480;11.946;2023-09-30T08:14:55;6.53;;;2.97;;
31348;SDS011;17976;48.480;11.946;2023-09-30T08:17:21;10.80;;;2.90;;
31348;SDS011;17976;48.480;11.946;2023-09-30T08:19:47;6.68;;;2.63;;
31348;SDS011;17976;48.480;11.946;2023-09-30T08:22:14;6.38;;;2.55;;
31348;SDS011;17976;48.480;11.946;2023-09-30T08:24:40;4.00;;;2.15;;
31348;SDS011;17976;48.480;11.946;2023-09-30T08:27:06;5.28;;;2.47;;
31348;SDS011;17976;48.480;11.946;2023-09-30T08:29:35;8.45;;;2.33;;
31348;SDS011;17976;48.480;11.946;2023-09-30T08:33:45;8.75;;;2.45;;
31348;SDS011;17976;48.480;11.946;2023-09-30T08:36:11;8.45;;;2.58;;
31348;SDS011;17976;48.480;11.946;2023-09-30T08:38:38;6.68;;;2.20;;
31348;SDS011;17976;48.480;11.946;2023-09-30T08:41:05;4.25;;;2.03;;
31348;SDS011;17976;48.480;11.946;2023-09-30T08:43:33;10.25;;;2.78;;
31348;SDS011;17976;48.480;11.946;2023-09-30T08:46:00;15.40;;;3.20;;
31348;SDS011;17976;48.480;11.946;2023-09-30T08:48:28;15.00;;;2.95;;
31348;SDS011;17976;48.480;11.946;2023-09-30T08:50:54;9.27;;;2.58;;
31348;SDS011;17976;48.480;11.946;2023-09-30T08:53:21;4.53;;;1.60;;
31348;SDS011;17976;48.480;11.946;2023-09-30T08:55:48;5.47;;;2.20;;
31348;SDS011;17976;48.480;11.946;2023-09-30T08:58:19;6.95;;;2.63;;
31348;SDS011;17976;48.480;11.946;2023-09-30T09:00:45;8.57;;;2.20;;
31348;SDS011;17976;48.480;11.946;2023-09-30T09:03:11;7.90;;;2.10;;
31348;SDS011;17976;48.480;11.946;2023-09-30T09:05:37;10.32;;;1.90;;
31348;SDS011;17976;48.480;11.946;2023-09-30T09:08:03;5.50;;;1.70;;
31348;SDS011;17976;48.480;11.946;2023-09-30T09:10:30;4.63;;;1.55;;
31348;SDS011;17976;48.480;11.946;2023-09-30T09:12:57;6.40;;;1.75;;
31348;SDS011;17976;48.480;11.946;2023-09-30T09:15:24;5.00;;;1.92;;
31348;SDS011;17976;48.480;11.946;2023-09-30T09:17:51;5.25;;;1.65;;
31348;SDS011;17976;48.480;11.946;2023-09-30T09:20:21;3.47;;;1.33;;
31348;SDS011;17976;48.480;11.946;2023-09-30T09:22:48;4.22;;;1.50;;
31348;SDS011;17976;48.480;11.946;2023-09-30T09:25:19;7.75;;;1.70;;
31348;SDS011;17976;48.480;11.946;2023-09-30T09:27:46;3.33;;;1.63;;
31348;SDS011;17976;48.480;11.946;2023-09-30T09:30:22;6.22;;;1.88;;
31348;SDS011;17976;48.480;11.946;2023-09-30T09:32:52;4.05;;;1.65;;
31348;SDS011;17976;48.480;11.946;2023-09-30T09:35:19;5.60;;;1.85;;
31348;SDS011;17976;48.480;11.946;2023-09-30T09:37:53;5.25;;;1.40;;
31348;SDS011;17976;48.480;11.946;2023-09-30T09:40:22;4.18;;;1.40;;
31348;SDS011;17976;48.480;11.946;2023-09-30T09:42:49;3.33;;;1.20;;
31348;SDS011;17976;48.480;11.946;2023-09-30T09:45:18;2.50;;;1.10;;
31348;SDS011;17976;48.480;11.946;2023-09-30T09:47:45;3.20;;;1.20;;
31348;SDS011;17976;48.480;11.946;2023-09-30T09:50:11;2.40;;;0.98;;
31348;SDS011;17976;48.480;11.946;2023-09-30T09:52:38;8.15;;;5.05;;
31348;SDS011;17976;48.480;11.946;2023-09-30T09:55:05;2.78;;;1.25;;
31348;SDS011;17976;48.480;11.946;2023-09-30T09:57:32;7.22;;;1.58;;
31348;SDS011;17976;48.480;11.946;2023-09-30T09:59:59;6.28;;;2.05;;
31348;SDS011;17976;48.480;11.946;2023-09-30T10:02:25;6.95;;;1.73;;
31348;SDS011;17976;48.480;11.946;2023-09-30T10:04:53;5.20;;;1.20;;
31348;SDS011;17976;48.480;11.946;2023-09-30T10:07:28;4.53;;;1.27;;
31348;SDS011;17976;48.480;11.946;2023-09-30T10:09:55;1.90;;;0.77;;
31348;SDS011;17976;48.480;11.946;2023-09-30T10:12:23;2.75;;;1.23;;
31348;SDS011;17976;48.480;11.946;2023-09-30T10:14:49;6.15;;;1.80;;
31348;SDS011;17976;48.480;11.946;2023-09-30T10:17:15;2.75;;;1.20;;
31348;SDS011;17976;48.480;11.946;2023-09-30T10:22:26;4.00;;;1.38;;
31348;SDS011;17976;48.480;11.946;2023-09-30T10:24:53;4.45;;;1.10;;
31348;SDS011;17976;48.480;11.946;2023-09-30T10:29:56;3.35;;;1.35;;
31348;SDS011;17976;48.480;11.946;2023-09-30T10:35:11;6.55;;;1.92;;
31348;SDS011;17976;48.480;11.946;2023-09-30T10:37:36;8.15;;;2.08;;
31348;SDS011;17976;48.480;11.946;2023-09-30T10:40:03;4.65;;;2.03;;
31348;SDS011;17976;48.480;11.946;2023-09-30T10:47:56;4.22;;;1.70;;
31348;SDS011;17976;48.480;11.946;2023-09-30T10:53:07;3.78;;;1.75;;
31348;SDS011;17976;48.480;11.946;2023-09-30T10:55:33;3.83;;;1.70;;
31348;SDS011;17976;48.480;11.946;2023-09-30T10:57:59;6.35;;;1.80;;
31348;SDS011;17976;48.480;11.946;2023-09-30T11:00:25;4.20;;;1.75;;
31348;SDS011;17976;48.480;11.946;2023-09-30T11:02:52;6.35;;;2.15;;
31348;SDS011;17976;48.480;11.946;2023-09-30T11:05:18;5.22;;;2.25;;
31348;SDS011;17976;48.480;11.946;2023-09-30T11:07:47;4.68;;;2.00;;
31348;SDS011;17976;48.480;11.946;2023-09-30T11:10:20;6.38;;;2.08;;
31348;SDS011;17976;48.480;11.946;2023-09-30T11:12:57;5.07;;;2.08;;
31348;SDS011;17976;48.480;11.946;2023-09-30T11:15:24;4.88;;;2.20;;
31348;SDS011;17976;48.480;11.946;2023-09-30T11:17:51;5.32;;;2.42;;
31348;SDS011;17976;48.480;11.946;2023-09-30T11:20:17;4.53;;;2.30;;
31348;SDS011;17976;48.480;11.946;2023-09-30T11:22:44;6.88;;;2.85;;
31348;SDS011;17976;48.480;11.946;2023-09-30T11:25:17;7.32;;;3.15;;
31348;SDS011;17976;48.480;11.946;2023-09-30T11:27:44;11.88;;;3.03;;
31348;SDS011;17976;48.480;11.946;2023-09-30T11:30:10;7.50;;;2.97;;
31348;SDS011;17976;48.480;11.946;2023-09-30T11:32:37;5.28;;;2.40;;
31348;SDS011;17976;48.480;11.946;2023-09-30T11:35:05;5.40;;;2.70;;
31348;SDS011;17976;48.480;11.946;2023-09-30T11:37:34;13.52;;;3.35;;
31348;SDS011;17976;48.480;11.946;2023-09-30T11:40:10;8.63;;;3.20;;
31348;SDS011;17976;48.480;11.946;2023-09-30T11:42:36;6.00;;;2.55;;
31348;SDS011;17976;48.480;11.946;2023-09-30T11:45:17;7.93;;;3.03;;
31348;SDS011;17976;48.480;11.946;2023-09-30T11:47:43;6.43;;;2.65;;
31348;SDS011;17976;48.480;11.946;2023-09-30T11:50:10;6.60;;;2.50;;
31348;SDS011;17976;48.480;11.946;2023-09-30T11:52:37;8.18;;;2.85;;
31348;SDS011;17976;48.480;11.946;2023-09-30T11:55:06;6.30;;;2.67;;
31348;SDS011;17976;48.480;11.946;2023-09-30T11:57:32;7.53;;;3.42;;
31348;SDS011;17976;48.480;11.946;2023-09-30T11:59:59;6.00;;;2.65;;
31348;SDS011;17976;48.480;11.946;2023-09-30T12:02:25;8.50;;;2.65;;
31348;SDS011;17976;48.480;11.946;2023-09-30T12:04:51;10.57;;;4.00;;
31348;SDS011;17976;48.480;11.946;2023-09-30T12:07:18;8.43;;;2.85;;
31348;SDS011;17976;48.480;11.946;2023-09-30T12:09:44;6.10;;;2.80;;
31348;SDS011;17976;48.480;11.946;2023-09-30T12:12:10;8.45;;;3.25;;
31348;SDS011;17976;48.480;11.946;2023-09-30T12:14:39;7.35;;;3.42;;
31348;SDS011;17976;48.480;11.946;2023-09-30T12:17:05;6.00;;;2.78;;
31348;SDS011;17976;48.480;11.946;2023-09-30T12:19:35;7.70;;;2.88;;
31348;SDS011;17976;48.480;11.946;2023-09-30T12:22:01;12.88;;;3.33;;
31348;SDS011;17976;48.480;11.946;2023-09-30T12:24:27;19.05;;;4.32;;
31348;SDS011;17976;48.480;11.946;2023-09-30T12:26:53;9.90;;;3.70;;
31348;SDS011;17976;48.480;11.946;2023-09-30T12:29:20;12.68;;;3.83;;
31348;SDS011;17976;48.480;11.946;2023-09-30T12:31:47;10.32;;;3.33;;
31348;SDS011;17976;48.480;11.946;2023-09-30T12:34:13;8.95;;;2.90;;
31348;SDS011;17976;48.480;11.946;2023-09-30T12:36:39;11.75;;;4.40;;
31348;SDS011;17976;48.480;11.946;2023-09-30T12:39:06;8.93;;;3.33;;
31348;SDS011;17976;48.480;11.946;2023-09-30T12:41:41;11.57;;;4.28;;
31348;SDS011;17976;48.480;11.946;2023-09-30T12:44:08;10.70;;;3.75;;
31348;SDS011;17976;48.480;11.946;2023-09-30T12:46:34;9.20;;;3.38;;
31348;SDS011;17976;48.480;11.946;2023-09-30T12:49:02;12.45;;;4.20;;
31348;SDS011;17976;48.480;11.946;2023-09-30T12:51:28;18.77;;;4.78;;
31348;SDS011;17976;48.480;11.946;2023-09-30T12:53:54;9.85;;;3.55;;
31348;SDS011;17976;48.480;11.946;2023-09-30T12:56:20;8.02;;;3.55;;
31348;SDS011;17976;48.480;11.946;2023-09-30T12:58:46;11.55;;;3.80;;
31348;SDS011;17976;48.480;11.946;2023-09-30T13:01:12;10.93;;;4.05;;
31348;SDS011;17976;48.480;11.946;2023-09-30T13:03:39;11.15;;;5.30;;
31348;SDS011;17976;48.480;11.946;2023-09-30T13:06:05;9.57;;;4.30;;
31348;SDS011;17976;48.480;11.946;2023-09-30T13:08:31;20.70;;;7.05;;
31348;SDS011;17976;48.480;11.946;2023-09-30T13:10:59;24.88;;;6.60;;
31348;SDS011;17976;48.480;11.946;2023-09-30T13:13:27;19.00;;;5.35;;
31348;SDS011;17976;48.480;11.946;2023-09-30T13:15:53;16.75;;;4.57;;
31348;SDS011;17976;48.480;11.946;2023-09-30T13:18:19;10.52;;;4.38;;
31348;SDS011;17976;48.480;11.946;2023-09-30T13:20:45;10.85;;;4.28;;
31348;SDS011;17976;48.480;11.946;2023-09-30T13:23:10;9.32;;;3.45;;
31348;SDS011;17976;48.480;11.946;2023-09-30T13:25:36;12.82;;;4.50;;
31348;SDS011;17976;48.480;11.946;2023-09-30T13:28:02;8.95;;;3.80;;
31348;SDS011;17976;48.480;11.946;2023-09-30T13:30:28;10.75;;;4.18;;
31348;SDS011;17976;48.480;11.946;2023-09-30T13:32:54;10.52;;;4.38;;
31348;SDS011;17976;48.480;11.946;2023-09-30T13:35:21;13.70;;;4.55;;
31348;SDS011;17976;48.480;11.946;2023-09-30T13:37:47;11.68;;;4.75;;
31348;SDS011;17976;48.480;11.946;2023-09-30T13:40:13;10.77;;;5.10;;
31348;SDS011;17976;48.480;11.946;2023-09-30T13:42:39;13.50;;;5.13;;
31348;SDS011;17976;48.480;11.946;2023-09-30T13:45:05;13.98;;;5.30;;
31348;SDS011;17976;48.480;11.946;2023-09-30T13:47:31;12.05;;;5.13;;
31348;SDS011;17976;48.480;11.946;2023-09-30T13:49:58;14.43;;;5.22;;
31348;SDS011;17976;48.480;11.946;2023-09-30T13:52:24;11.07;;;4.78;;
31348;SDS011;17976;48.480;11.946;2023-09-30T13:54:50;14.48;;;5.20;;
31348;SDS011;17976;48.480;11.946;2023-09-30T13:57:16;12.48;;;4.85;;
31348;SDS011;17976;48.480;11.946;2023-09-30T13:59:42;13.52;;;5.78;;
31348;SDS011;17976;48.480;11.946;2023-09-30T14:02:08;16.17;;;5.82;;
31348;SDS011;17976;48.480;11.946;2023-09-30T14:04:34;17.48;;;5.82;;
31348;SDS011;17976;48.480;11.946;2023-09-30T14:07:03;15.98;;;6.72;;
31348;SDS011;17976;48.480;11.946;2023-09-30T14:09:30;15.63;;;6.05;;
31348;SDS011;17976;48.480;11.946;2023-09-30T14:11:56;14.00;;;6.18;;
31348;SDS011;17976;48.480;11.946;2023-09-30T14:14:23;30.10;;;8.18;;
31348;SDS011;17976;48.480;11.946;2023-09-30T14:16:49;19.38;;;7.53;;
31348;SDS011;17976;48.480;11.946;2023-09-30T14:19:15;14.52;;;5.55;;
31348;SDS011;17976;48.480;11.946;2023-09-30T14:21:41;15.18;;;6.70;;
31348;SDS011;17976;48.480;11.946;2023-09-30T14:24:07;22.48;;;7.78;;
31348;SDS011;17976;48.480;11.946;2023-09-30T14:26:33;15.75;;;7.22;;
31348;SDS011;17976;48.480;11.946;2023-09-30T14:28:59;17.48;;;6.97;;
31348;SDS011;17976;48.480;11.946;2023-09-30T14:31:25;18.23;;;7.72;;
31348;SDS011;17976;48.480;11.946;2023-09-30T14:33:51;14.52;;;6.60;;
31348;SDS011;17976;48.480;11.946;2023-09-30T14:36:18;14.38;;;4.18;;
31348;SDS011;17976;48.480;11.946;2023-09-30T14:38:44;11.05;;;4.55;;
31348;SDS011;17976;48.480;11.946;2023-09-30T14:41:10;9.13;;;3.72;;
31348;SDS011;17976;48.480;11.946;2023-09-30T14:43:39;9.93;;;4.07;;
31348;SDS011;17976;48.480;11.946;2023-09-30T14:46:05;10.60;;;3.75;;
31348;SDS011;17976;48.480;11.946;2023-09-30T14:48:33;32.13;;;12.27;;
31348;SDS011;17976;48.480;11.946;2023-09-30T14:50:59;14.15;;;5.13;;
31348;SDS011;17976;48.480;11.946;2023-09-30T14:53:25;15.32;;;7.32;;
31348;SDS011;17976;48.480;11.946;2023-09-30T14:55:51;13.05;;;4.40;;
31348;SDS011;17976;48.480;11.946;2023-09-30T14:58:17;10.60;;;4.43;;
31348;SDS011;17976;48.480;11.946;2023-09-30T15:00:43;9.23;;;4.18;;
31348;SDS011;17976;48.480;11.946;2023-09-30T15:03:09;12.57;;;3.95;;
31348;SDS011;17976;48.480;11.946;2023-09-30T15:05:36;12.45;;;4.38;;
31348;SDS011;17976;48.480;11.946;2023-09-30T15:08:01;13.20;;;4.38;;
31348;SDS011;17976;48.480;11.946;2023-09-30T15:10:28;11.38;;;3.85;;
31348;SDS011;17976;48.480;11.946;2023-09-30T15:12:54;9.30;;;3.65;;
31348;SDS011;17976;48.480;11.946;2023-09-30T15:15:20;12.77;;;4.90;;
31348;SDS011;17976;48.480;11.946;2023-09-30T15:17:46;11.20;;;4.55;;
31348;SDS011;17976;48.480;11.946;2023-09-30T15:20:12;11.73;;;5.22;;
31348;SDS011;17976;48.480;11.946;2023-09-30T15:22:38;10.57;;;4.63;;
31348;SDS011;17976;48.480;11.946;2023-09-30T15:25:04;14.45;;;5.28;;
31348;SDS011;17976;48.480;11.946;2023-09-30T15:27:30;9.88;;;4.55;;
31348;SDS011;17976;48.480;11.946;2023-09-30T15:29:58;10.45;;;4.95;;
31348;SDS011;17976;48.480;11.946;2023-09-30T15:32:24;10.63;;;4.90;;
31348;SDS011;17976;48.480;11.946;2023-09-30T15:34:50;9.85;;;4.70;;
31348;SDS011;17976;48.480;11.946;2023-09-30T15:37:16;10.65;;;4.50;;
31348;SDS011;17976;48.480;11.946;2023-09-30T15:39:42;11.05;;;4.68;;
31348;SDS011;17976;48.480;11.946;2023-09-30T15:42:08;9.55;;;3.88;;
31348;SDS011;17976;48.480;11.946;2023-09-30T15:44:36;11.35;;;4.20;;
31348;SDS011;17976;48.480;11.946;2023-09-30T15:47:06;17.65;;;4.85;;
31348;SDS011;17976;48.480;11.946;2023-09-30T15:49:32;13.38;;;4.65;;
31348;SDS011;17976;48.480;11.946;2023-09-30T15:51:58;10.60;;;4.13;;
31348;SDS011;17976;48.480;11.946;2023-09-30T15:54:24;10.18;;;4.30;;
31348;SDS011;17976;48.480;11.946;2023-09-30T15:56:50;9.75;;;4.45;;
31348;SDS011;17976;48.480;11.946;2023-09-30T15:59:16;11.90;;;4.68;;
31348;SDS011;17976;48.480;11.946;2023-09-30T16:01:42;8.85;;;3.85;;
31348;SDS011;17976;48.480;11.946;2023-09-30T16:04:09;9.77;;;4.05;;
31348;SDS011;17976;48.480;11.946;2023-09-30T16:06:35;11.10;;;4.13;;
31348;SDS011;17976;48.480;11.946;2023-09-30T16:09:01;9.65;;;4.35;;
31348;SDS011;17976;48.480;11.946;2023-09-30T16:11:27;14.20;;;4.43;;
31348;SDS011;17976;48.480;11.946;2023-09-30T16:13:54;12.90;;;4.22;;
31348;SDS011;17976;48.480;11.946;2023-09-30T16:16:20;11.20;;;4.00;;
31348;SDS011;17976;48.480;11.946;2023-09-30T16:18:46;9.80;;;4.43;;
31348;SDS011;17976;48.480;11.946;2023-09-30T16:21:12;9.73;;;4.03;;
31348;SDS011;17976;48.480;11.946;2023-09-30T16:23:38;22.67;;;10.52;;
31348;SDS011;17976;48.480;11.946;2023-09-30T16:26:04;19.05;;;5.28;;
31348;SDS011;17976;48.480;11.946;2023-09-30T16:28:30;12.77;;;4.43;;
31348;SDS011;17976;48.480;11.946;2023-09-30T16:30:59;12.02;;;4.35;;
31348;SDS011;17976;48.480;11.946;2023-09-30T16:33:26;12.98;;;4.07;;
31348;SDS011;17976;48.480;11.946;2023-09-30T16:35:52;10.45;;;4.97;;
31348;SDS011;17976;48.480;11.946;2023-09-30T16:38:18;11.13;;;4.30;;
31348;SDS011;17976;48.480;11.946;2023-09-30T16:40:46;19.30;;;8.02;;
31348;SDS011;17976;48.480;11.946;2023-09-30T16:43:12;12.63;;;4.10;;
31348;SDS011;17976;48.480;11.946;2023-09-30T16:45:38;13.00;;;4.90;;
31348;SDS011;17976;48.480;11.946;2023-09-30T16:48:04;8.88;;;4.00;;
31348;SDS011;17976;48.480;11.946;2023-09-30T16:50:31;13.38;;;4.18;;
31348;SDS011;17976;48.480;11.946;2023-09-30T16:52:56;13.35;;;4.78;;
31348;SDS011;17976;48.480;11.946;2023-09-30T16:55:22;13.75;;;3.95;;
31348;SDS011;17976;48.480;11.946;2023-09-30T16:57:48;13.05;;;4.45;;
31348;SDS011;17976;48.480;11.946;2023-09-30T17:00:15;11.57;;;4.68;;
31348;SDS011;17976;48.480;11.946;2023-09-30T17:02:41;12.95;;;3.92;;
31348;SDS011;17976;48.480;11.946;2023-09-30T17:05:07;12.75;;;4.60;;
31348;SDS011;17976;48.480;11.946;2023-09-30T17:07:34;10.85;;;4.72;;
31348;SDS011;17976;48.480;11.946;2023-09-30T17:10:00;14.93;;;4.97;;
31348;SDS011;17976;48.480;11.946;2023-09-30T17:12:25;11.07;;;4.47;;
31348;SDS011;17976;48.480;11.946;2023-09-30T17:14:51;12.52;;;4.38;;
31348;SDS011;17976;48.480;11.946;2023-09-30T17:17:17;12.45;;;4.85;;
31348;SDS011;17976;48.480;11.946;2023-09-30T17:19:43;10.60;;;4.43;;
31348;SDS011;17976;48.480;11.946;2023-09-30T17:22:09;10.60;;;4.55;;
31348;SDS011;17976;48.480;11.946;2023-09-30T17:24:36;10.65;;;4.78;;
31348;SDS011;17976;48.480;11.946;2023-09-30T17:27:02;15.73;;;4.57;;
31348;SDS011;17976;48.480;11.946;2023-09-30T17:29:29;11.10;;;4.70;;
31348;SDS011;17976;48.480;11.946;2023-09-30T17:31:55;12.32;;;4.05;;
31348;SDS011;17976;48.480;11.946;2023-09-30T17:34:21;13.98;;;4.90;;
31348;SDS011;17976;48.480;11.946;2023-09-30T17:36:47;12.63;;;4.95;;
31348;SDS011;17976;48.480;11.946;2023-09-30T17:39:13;14.25;;;4.70;;
31348;SDS011;17976;48.480;11.946;2023-09-30T17:41:39;16.95;;;5.45;;
31348;SDS011;17976;48.480;11.946;2023-09-30T17:44:05;10.90;;;4.85;;
31348;SDS011;17976;48.480;11.946;2023-09-30T17:46:31;11.68;;;4.90;;
31348;SDS011;17976;48.480;11.946;2023-09-30T17:48:57;15.60;;;5.20;;
31348;SDS011;17976;48.480;11.946;2023-09-30T17:51:23;19.98;;;5.72;;
31348;SDS011;17976;48.480;11.946;2023-09-30T17:53:50;13.75;;;5.50;;
31348;SDS011;17976;48.480;11.946;2023-09-30T17:56:17;15.10;;;5.25;;
31348;SDS011;17976;48.480;11.946;2023-09-30T17:58:43;13.35;;;5.40;;
31348;SDS011;17976;48.480;11.946;2023-09-30T18:01:09;17.02;;;7.97;;
31348;SDS011;17976;48.480;11.946;2023-09-30T18:03:35;15.15;;;5.05;;
31348;SDS011;17976;48.480;11.946;2023-09-30T18:06:08;12.65;;;4.85;;
31348;SDS011;17976;48.480;11.946;2023-09-30T18:08:41;12.18;;;4.72;;
31348;SDS011;17976;48.480;11.946;2023-09-30T18:11:07;12.27;;;4.43;;
31348;SDS011;17976;48.480;11.946;2023-09-30T18:13:33;16.77;;;4.25;;
31348;SDS011;17976;48.480;11.946;2023-09-30T18:16:00;13.30;;;5.53;;
31348;SDS011;17976;48.480;11.946;2023-09-30T18:18:29;11.23;;;4.50;;
31348;SDS011;17976;48.480;11.946;2023-09-30T18:20:55;15.70;;;5.07;;
31348;SDS011;17976;48.480;11.946;2023-09-30T18:23:22;13.30;;;5.53;;
31348;SDS011;17976;48.480;11.946;2023-09-30T18:25:48;12.27;;;4.95;;
31348;SDS011;17976;48.480;11.946;2023-09-30T18:28:14;17.27;;;5.63;;
31348;SDS011;17976;48.480;11.946;2023-09-30T18:30:40;18.73;;;5.97;;
31348;SDS011;17976;48.480;11.946;2023-09-30T18:33:07;13.23;;;4.90;;
31348;SDS011;17976;48.480;11.946;2023-09-30T18:35:36;17.42;;;5.32;;
31348;SDS011;17976;48.480;11.946;2023-09-30T18:38:03;16.92;;;5.80;;
31348;SDS011;17976;48.480;11.946;2023-09-30T18:40:29;14.90;;;5.63;;
31348;SDS011;17976;48.480;11.946;2023-09-30T18:42:56;12.23;;;4.75;;
31348;SDS011;17976;48.480;11.946;2023-09-30T18:45:22;16.05;;;4.93;;
31348;SDS011;17976;48.480;11.946;2023-09-30T18:47:48;13.35;;;4.97;;
31348;SDS011;17976;48.480;11.946;2023-09-30T18:50:15;10.93;;;4.68;;
31348;SDS011;17976;48.480;11.946;2023-09-30T18:52:41;12.13;;;4.70;;
31348;SDS011;17976;48.480;11.946;2023-09-30T18:55:08;12.13;;;5.30;;
31348;SDS011;17976;48.480;11.946;2023-09-30T18:57:34;12.48;;;4.97;;
31348;SDS011;17976;48.480;11.946;2023-09-30T19:00:00;13.05;;;5.63;;
31348;SDS011;17976;48.480;11.946;2023-09-30T19:02:25;17.88;;;5.38;;
31348;SDS011;17976;48.480;11.946;2023-09-30T19:04:51;11.95;;;4.80;;
31348;SDS011;17976;48.480;11.946;2023-09-30T19:07:17;16.70;;;5.25;;
31348;SDS011;17976;48.480;11.946;2023-09-30T19:09:43;14.07;;;5.40;;
31348;SDS011;17976;48.480;11.946;2023-09-30T19:12:09;13.32;;;5.20;;
31348;SDS011;17976;48.480;11.946;2023-09-30T19:14:35;17.55;;;5.55;;
31348;SDS011;17976;48.480;11.946;2023-09-30T19:17:01;13.68;;;5.88;;
31348;SDS011;17976;48.480;11.946;2023-09-30T19:19:27;11.68;;;5.40;;
31348;SDS011;17976;48.480;11.946;2023-09-30T19:21:53;12.27;;;5.45;;
31348;SDS011;17976;48.480;11.946;2023-09-30T19:24:19;12.30;;;5.88;;
31348;SDS011;17976;48.480;11.946;2023-09-30T19:26:45;15.95;;;5.85;;
31348;SDS011;17976;48.480;11.946;2023-09-30T19:29:11;15.50;;;6.20;;
31348;SDS011;17976;48.480;11.946;2023-09-30T19:31:37;12.43;;;5.22;;
31348;SDS011;17976;48.480;11.946;2023-09-30T19:34:03;15.80;;;5.88;;
31348;SDS011;17976;48.480;11.946;2023-09-30T19:36:29;16.55;;;6.30;;
31348;SDS011;17976;48.480;11.946;2023-09-30T19:38:55;15.73;;;6.03;;
31348;SDS011;17976;48.480;11.946;2023-09-30T19:41:21;14.38;;;6.75;;
31348;SDS011;17976;48.480;11.946;2023-09-30T19:43:47;14.48;;;5.75;;
31348;SDS011;17976;48.480;11.946;2023-09-30T19:46:14;18.92;;;5.60;;
31348;SDS011;17976;48.480;11.946;2023-09-30T19:48:40;15.73;;;6.22;;
31348;SDS011;17976;48.480;11.946;2023-09-30T19:51:07;18.05;;;5.75;;
31348;SDS011;17976;48.480;11.946;2023-09-30T19:53:33;16.88;;;6.53;;
31348;SDS011;17976;48.480;11.946;2023-09-30T19:56:05;13.68;;;6.32;;
31348;SDS011;17976;48.480;11.946;2023-09-30T19:58:35;16.52;;;6.60;;
